sensor_id;sensor_type;location;lat;lon;timestamp;P1;durP1;ratioP1;P2;durP2;ratioP2
29634;SDS011;16557;54.762;56.068;2023-01-26T00:00:20;29.67;;;14.78;;
29634;SDS011;16557;54.762;56.068;2023-01-26T00:02:49;32.95;;;13.90;;
29634;SDS011;16557;54.762;56.068;2023-01-26T00:05:18;30.12;;;12.93;;
29634;SDS011;16557;54.762;56.068;2023-01-26T00:07:48;30.77;;;13.45;;
29634;SDS011;16557;54.762;56.068;2023-01-26T00:10:17;32.38;;;12.98;;
29634;SDS011;16557;54.762;56.068;2023-01-26T00:12:47;36.05;;;15.23;;
29634;SDS011;16557;54.762;56.068;2023-01-26T00:15:16;30.27;;;13.78;;
29634;SDS011;16557;54.762;56.068;2023-01-26T00:17:45;29.00;;;14.90;;
29634;SDS011;16557;54.762;56.068;2023-01-26T00:20:16;33.30;;;13.03;;
29634;SDS011;16557;54.762;56.068;2023-01-26T00:22:45;29.92;;;13.45;;
29634;SDS011;16557;54.762;56.068;2023-01-26T00:25:15;34.58;;;14.65;;
29634;SDS011;16557;54.762;56.068;2023-01-26T00:27:44;37.58;;;13.98;;
29634;SDS011;16557;54.762;56.068;2023-01-26T00:30:13;35.52;;;14.65;;
29634;SDS011;16557;54.762;56.068;2023-01-26T00:32:43;29.60;;;13.22;;
29634;SDS011;16557;54.762;56.068;2023-01-26T00:35:12;38.85;;;14.55;;
29634;SDS011;16557;54.762;56.068;2023-01-26T00:37:41;29.98;;;13.98;;
29634;SDS011;16557;54.762;56.068;2023-01-26T00:40:11;31.93;;;13.95;;
29634;SDS011;16557;54.762;56.068;2023-01-26T00:42:40;38.42;;;14.07;;
29634;SDS011;16557;54.762;56.068;2023-01-26T00:45:09;34.53;;;14.73;;
29634;SDS011;16557;54.762;56.068;2023-01-26T00:47:38;36.28;;;14.73;;
29634;SDS011;16557;54.762;56.068;2023-01-26T00:50:08;33.65;;;13.03;;
29634;SDS011;16557;54.762;56.068;2023-01-26T00:52:38;32.15;;;13.90;;
29634;SDS011;16557;54.762;56.068;2023-01-26T00:55:07;28.98;;;13.05;;
29634;SDS011;16557;54.762;56.068;2023-01-26T00:57:37;30.72;;;13.85;;
29634;SDS011;16557;54.762;56.068;2023-01-26T01:00:07;33.92;;;13.78;;
29634;SDS011;16557;54.762;56.068;2023-01-26T01:02:38;31.23;;;13.58;;
29634;SDS011;16557;54.762;56.068;2023-01-26T01:05:08;30.37;;;12.47;;
29634;SDS011;16557;54.762;56.068;2023-01-26T01:07:37;33.13;;;13.95;;
29634;SDS011;16557;54.762;56.068;2023-01-26T01:10:07;31.40;;;13.30;;
29634;SDS011;16557;54.762;56.068;2023-01-26T01:12:36;31.75;;;13.83;;
29634;SDS011;16557;54.762;56.068;2023-01-26T01:15:06;35.92;;;15.15;;
29634;SDS011;16557;54.762;56.068;2023-01-26T01:17:36;35.78;;;15.00;;
29634;SDS011;16557;54.762;56.068;2023-01-26T01:20:05;30.25;;;13.60;;
29634;SDS011;16557;54.762;56.068;2023-01-26T01:22:36;29.77;;;13.15;;
29634;SDS011;16557;54.762;56.068;2023-01-26T01:25:06;33.73;;;13.03;;
29634;SDS011;16557;54.762;56.068;2023-01-26T01:27:36;35.60;;;14.25;;
29634;SDS011;16557;54.762;56.068;2023-01-26T01:30:05;29.75;;;14.23;;
29634;SDS011;16557;54.762;56.068;2023-01-26T01:32:35;31.68;;;14.30;;
29634;SDS011;16557;54.762;56.068;2023-01-26T01:35:06;30.57;;;12.73;;
29634;SDS011;16557;54.762;56.068;2023-01-26T01:37:35;35.35;;;13.80;;
29634;SDS011;16557;54.762;56.068;2023-01-26T01:40:05;32.03;;;14.45;;
29634;SDS011;16557;54.762;56.068;2023-01-26T01:42:36;34.27;;;13.35;;
29634;SDS011;16557;54.762;56.068;2023-01-26T01:47:56;37.70;;;16.37;;
29634;SDS011;16557;54.762;56.068;2023-01-26T01:50:26;30.52;;;13.95;;
29634;SDS011;16557;54.762;56.068;2023-01-26T01:52:56;29.02;;;13.30;;
29634;SDS011;16557;54.762;56.068;2023-01-26T01:55:25;26.15;;;11.97;;
29634;SDS011;16557;54.762;56.068;2023-01-26T02:00:27;29.63;;;12.13;;
29634;SDS011;16557;54.762;56.068;2023-01-26T02:02:57;30.12;;;12.88;;
29634;SDS011;16557;54.762;56.068;2023-01-26T02:05:39;33.95;;;13.13;;
29634;SDS011;16557;54.762;56.068;2023-01-26T02:08:19;30.15;;;12.58;;
29634;SDS011;16557;54.762;56.068;2023-01-26T02:10:50;33.15;;;14.13;;
29634;SDS011;16557;54.762;56.068;2023-01-26T02:13:21;23.77;;;11.50;;
29634;SDS011;16557;54.762;56.068;2023-01-26T02:15:52;25.90;;;12.18;;
29634;SDS011;16557;54.762;56.068;2023-01-26T02:18:21;25.35;;;11.68;;
29634;SDS011;16557;54.762;56.068;2023-01-26T02:20:51;21.62;;;10.43;;
29634;SDS011;16557;54.762;56.068;2023-01-26T02:26:07;26.15;;;11.25;;
29634;SDS011;16557;54.762;56.068;2023-01-26T02:28:38;24.18;;;11.22;;
29634;SDS011;16557;54.762;56.068;2023-01-26T02:31:08;23.45;;;10.60;;
29634;SDS011;16557;54.762;56.068;2023-01-26T02:33:38;26.15;;;10.78;;
29634;SDS011;16557;54.762;56.068;2023-01-26T02:36:19;24.35;;;10.08;;
29634;SDS011;16557;54.762;56.068;2023-01-26T02:41:38;27.45;;;11.45;;
29634;SDS011;16557;54.762;56.068;2023-01-26T02:44:25;21.02;;;10.58;;
29634;SDS011;16557;54.762;56.068;2023-01-26T02:46:55;20.80;;;10.38;;
29634;SDS011;16557;54.762;56.068;2023-01-26T02:49:24;19.12;;;10.08;;
29634;SDS011;16557;54.762;56.068;2023-01-26T02:52:11;21.50;;;10.28;;
29634;SDS011;16557;54.762;56.068;2023-01-26T02:54:47;21.23;;;9.05;;
29634;SDS011;16557;54.762;56.068;2023-01-26T02:57:35;18.62;;;8.43;;
29634;SDS011;16557;54.762;56.068;2023-01-26T03:00:07;20.23;;;9.73;;
29634;SDS011;16557;54.762;56.068;2023-01-26T03:02:38;19.75;;;9.85;;
29634;SDS011;16557;54.762;56.068;2023-01-26T03:05:08;15.55;;;8.23;;
29634;SDS011;16557;54.762;56.068;2023-01-26T03:07:38;17.77;;;9.10;;
29634;SDS011;16557;54.762;56.068;2023-01-26T03:10:07;15.68;;;7.87;;
29634;SDS011;16557;54.762;56.068;2023-01-26T03:12:38;17.00;;;7.80;;
29634;SDS011;16557;54.762;56.068;2023-01-26T03:15:08;16.50;;;6.75;;
29634;SDS011;16557;54.762;56.068;2023-01-26T03:18:03;16.90;;;7.00;;
29634;SDS011;16557;54.762;56.068;2023-01-26T03:20:40;13.13;;;7.05;;
29634;SDS011;16557;54.762;56.068;2023-01-26T03:23:28;11.35;;;5.85;;
29634;SDS011;16557;54.762;56.068;2023-01-26T03:26:15;12.43;;;6.70;;
29634;SDS011;16557;54.762;56.068;2023-01-26T03:29:02;10.85;;;5.78;;
29634;SDS011;16557;54.762;56.068;2023-01-26T03:31:33;12.45;;;6.30;;
29634;SDS011;16557;54.762;56.068;2023-01-26T03:34:02;10.90;;;6.00;;
29634;SDS011;16557;54.762;56.068;2023-01-26T03:36:31;12.65;;;6.10;;
29634;SDS011;16557;54.762;56.068;2023-01-26T03:39:00;13.08;;;5.85;;
29634;SDS011;16557;54.762;56.068;2023-01-26T03:41:29;11.85;;;6.67;;
29634;SDS011;16557;54.762;56.068;2023-01-26T03:44:16;14.00;;;6.58;;
29634;SDS011;16557;54.762;56.068;2023-01-26T03:47:03;16.05;;;6.87;;
29634;SDS011;16557;54.762;56.068;2023-01-26T03:49:50;17.00;;;7.72;;
29634;SDS011;16557;54.762;56.068;2023-01-26T03:52:37;14.53;;;7.30;;
29634;SDS011;16557;54.762;56.068;2023-01-26T03:55:24;16.25;;;7.33;;
29634;SDS011;16557;54.762;56.068;2023-01-26T03:58:11;15.93;;;7.53;;
29634;SDS011;16557;54.762;56.068;2023-01-26T04:00:40;13.98;;;6.62;;
29634;SDS011;16557;54.762;56.068;2023-01-26T04:03:10;16.07;;;7.53;;
29634;SDS011;16557;54.762;56.068;2023-01-26T04:05:57;15.08;;;6.42;;
29634;SDS011;16557;54.762;56.068;2023-01-26T04:08:51;13.18;;;5.75;;
29634;SDS011;16557;54.762;56.068;2023-01-26T04:11:15;12.60;;;6.25;;
29634;SDS011;16557;54.762;56.068;2023-01-26T04:13:45;15.00;;;7.60;;
29634;SDS011;16557;54.762;56.068;2023-01-26T04:16:31;11.50;;;5.65;;
29634;SDS011;16557;54.762;56.068;2023-01-26T04:19:19;14.58;;;6.45;;
29634;SDS011;16557;54.762;56.068;2023-01-26T04:22:06;14.80;;;6.53;;
29634;SDS011;16557;54.762;56.068;2023-01-26T04:24:35;17.45;;;7.90;;
29634;SDS011;16557;54.762;56.068;2023-01-26T04:27:04;14.07;;;7.17;;
29634;SDS011;16557;54.762;56.068;2023-01-26T04:29:34;17.15;;;7.78;;
29634;SDS011;16557;54.762;56.068;2023-01-26T04:32:03;19.82;;;8.60;;
29634;SDS011;16557;54.762;56.068;2023-01-26T04:34:32;21.17;;;8.88;;
29634;SDS011;16557;54.762;56.068;2023-01-26T04:37:01;22.35;;;10.82;;
29634;SDS011;16557;54.762;56.068;2023-01-26T04:39:31;18.73;;;9.45;;
29634;SDS011;16557;54.762;56.068;2023-01-26T04:42:00;22.95;;;10.55;;
29634;SDS011;16557;54.762;56.068;2023-01-26T04:44:31;27.87;;;10.78;;
29634;SDS011;16557;54.762;56.068;2023-01-26T04:47:00;25.82;;;11.53;;
29634;SDS011;16557;54.762;56.068;2023-01-26T04:49:30;23.92;;;11.48;;
29634;SDS011;16557;54.762;56.068;2023-01-26T04:51:59;25.68;;;11.63;;
29634;SDS011;16557;54.762;56.068;2023-01-26T04:54:28;25.50;;;11.53;;
29634;SDS011;16557;54.762;56.068;2023-01-26T04:56:57;26.35;;;11.50;;
29634;SDS011;16557;54.762;56.068;2023-01-26T04:59:27;23.05;;;11.48;;
29634;SDS011;16557;54.762;56.068;2023-01-26T05:01:58;22.00;;;11.05;;
29634;SDS011;16557;54.762;56.068;2023-01-26T05:04:28;29.63;;;12.25;;
29634;SDS011;16557;54.762;56.068;2023-01-26T05:06:57;35.92;;;18.07;;
29634;SDS011;16557;54.762;56.068;2023-01-26T05:09:26;23.40;;;11.30;;
29634;SDS011;16557;54.762;56.068;2023-01-26T05:11:55;24.87;;;12.40;;
29634;SDS011;16557;54.762;56.068;2023-01-26T05:14:26;32.93;;;15.40;;
29634;SDS011;16557;54.762;56.068;2023-01-26T05:16:55;29.27;;;13.88;;
29634;SDS011;16557;54.762;56.068;2023-01-26T05:19:25;35.33;;;15.13;;
29634;SDS011;16557;54.762;56.068;2023-01-26T05:21:54;34.23;;;14.30;;
29634;SDS011;16557;54.762;56.068;2023-01-26T05:24:23;25.40;;;11.75;;
29634;SDS011;16557;54.762;56.068;2023-01-26T05:26:52;27.62;;;13.60;;
29634;SDS011;16557;54.762;56.068;2023-01-26T05:29:23;30.27;;;13.68;;
29634;SDS011;16557;54.762;56.068;2023-01-26T05:31:52;26.57;;;12.03;;
29634;SDS011;16557;54.762;56.068;2023-01-26T05:34:21;29.63;;;13.68;;
29634;SDS011;16557;54.762;56.068;2023-01-26T05:36:51;26.97;;;12.10;;
29634;SDS011;16557;54.762;56.068;2023-01-26T05:39:20;30.88;;;13.40;;
29634;SDS011;16557;54.762;56.068;2023-01-26T05:41:49;28.60;;;13.75;;
29634;SDS011;16557;54.762;56.068;2023-01-26T05:44:18;27.27;;;13.25;;
29634;SDS011;16557;54.762;56.068;2023-01-26T05:46:48;27.85;;;14.25;;
29634;SDS011;16557;54.762;56.068;2023-01-26T05:49:17;29.65;;;15.43;;
29634;SDS011;16557;54.762;56.068;2023-01-26T05:51:46;29.40;;;13.30;;
29634;SDS011;16557;54.762;56.068;2023-01-26T05:54:15;28.38;;;13.58;;
29634;SDS011;16557;54.762;56.068;2023-01-26T05:56:44;28.52;;;13.62;;
29634;SDS011;16557;54.762;56.068;2023-01-26T05:59:14;28.75;;;12.25;;
29634;SDS011;16557;54.762;56.068;2023-01-26T06:01:43;31.77;;;13.98;;
29634;SDS011;16557;54.762;56.068;2023-01-26T06:04:13;29.12;;;13.05;;
29634;SDS011;16557;54.762;56.068;2023-01-26T06:06:42;29.90;;;14.63;;
29634;SDS011;16557;54.762;56.068;2023-01-26T06:09:12;28.73;;;13.93;;
29634;SDS011;16557;54.762;56.068;2023-01-26T06:11:41;30.02;;;13.20;;
29634;SDS011;16557;54.762;56.068;2023-01-26T06:14:10;28.42;;;13.38;;
29634;SDS011;16557;54.762;56.068;2023-01-26T06:16:40;27.82;;;14.85;;
29634;SDS011;16557;54.762;56.068;2023-01-26T06:19:09;28.80;;;13.95;;
29634;SDS011;16557;54.762;56.068;2023-01-26T06:21:38;25.23;;;13.03;;
29634;SDS011;16557;54.762;56.068;2023-01-26T06:24:08;31.25;;;15.03;;
29634;SDS011;16557;54.762;56.068;2023-01-26T06:26:37;30.77;;;13.85;;
29634;SDS011;16557;54.762;56.068;2023-01-26T06:29:07;26.30;;;13.95;;
29634;SDS011;16557;54.762;56.068;2023-01-26T06:31:37;31.73;;;13.60;;
29634;SDS011;16557;54.762;56.068;2023-01-26T06:34:06;29.52;;;14.40;;
29634;SDS011;16557;54.762;56.068;2023-01-26T06:36:36;29.18;;;13.85;;
29634;SDS011;16557;54.762;56.068;2023-01-26T06:39:08;25.17;;;13.28;;
29634;SDS011;16557;54.762;56.068;2023-01-26T06:41:38;28.07;;;13.90;;
29634;SDS011;16557;54.762;56.068;2023-01-26T06:44:10;26.05;;;13.28;;
29634;SDS011;16557;54.762;56.068;2023-01-26T06:46:39;31.73;;;14.05;;
29634;SDS011;16557;54.762;56.068;2023-01-26T06:49:08;27.90;;;13.10;;
29634;SDS011;16557;54.762;56.068;2023-01-26T06:54:12;27.52;;;12.93;;
29634;SDS011;16557;54.762;56.068;2023-01-26T06:56:41;26.62;;;12.65;;
29634;SDS011;16557;54.762;56.068;2023-01-26T06:59:11;30.12;;;13.98;;
29634;SDS011;16557;54.762;56.068;2023-01-26T07:01:46;27.30;;;13.58;;
29634;SDS011;16557;54.762;56.068;2023-01-26T07:04:15;27.70;;;13.65;;
29634;SDS011;16557;54.762;56.068;2023-01-26T07:06:44;26.85;;;12.28;;
29634;SDS011;16557;54.762;56.068;2023-01-26T07:09:13;25.35;;;13.53;;
29634;SDS011;16557;54.762;56.068;2023-01-26T07:11:43;25.15;;;12.78;;
29634;SDS011;16557;54.762;56.068;2023-01-26T07:14:12;22.60;;;11.93;;
29634;SDS011;16557;54.762;56.068;2023-01-26T07:16:41;20.27;;;11.60;;
29634;SDS011;16557;54.762;56.068;2023-01-26T07:19:11;21.57;;;11.05;;
29634;SDS011;16557;54.762;56.068;2023-01-26T07:21:40;24.75;;;11.73;;
29634;SDS011;16557;54.762;56.068;2023-01-26T07:24:09;27.30;;;13.00;;
29634;SDS011;16557;54.762;56.068;2023-01-26T07:26:38;21.37;;;11.75;;
29634;SDS011;16557;54.762;56.068;2023-01-26T07:29:07;23.55;;;10.53;;
29634;SDS011;16557;54.762;56.068;2023-01-26T07:31:37;27.70;;;11.73;;
29634;SDS011;16557;54.762;56.068;2023-01-26T07:34:08;17.60;;;10.85;;
29634;SDS011;16557;54.762;56.068;2023-01-26T07:36:37;20.52;;;10.80;;
29634;SDS011;16557;54.762;56.068;2023-01-26T07:39:07;21.17;;;10.93;;
29634;SDS011;16557;54.762;56.068;2023-01-26T07:41:36;22.13;;;11.40;;
29634;SDS011;16557;54.762;56.068;2023-01-26T07:44:08;21.17;;;10.68;;
29634;SDS011;16557;54.762;56.068;2023-01-26T07:46:36;17.73;;;10.00;;
29634;SDS011;16557;54.762;56.068;2023-01-26T07:49:07;20.23;;;10.55;;
29634;SDS011;16557;54.762;56.068;2023-01-26T07:51:38;19.48;;;10.82;;
29634;SDS011;16557;54.762;56.068;2023-01-26T07:54:08;21.12;;;10.50;;
29634;SDS011;16557;54.762;56.068;2023-01-26T07:56:39;18.15;;;9.28;;
29634;SDS011;16557;54.762;56.068;2023-01-26T07:59:09;18.48;;;10.38;;
29634;SDS011;16557;54.762;56.068;2023-01-26T08:01:39;21.20;;;10.65;;
29634;SDS011;16557;54.762;56.068;2023-01-26T08:04:08;18.12;;;9.43;;
29634;SDS011;16557;54.762;56.068;2023-01-26T08:06:38;17.35;;;9.45;;
29634;SDS011;16557;54.762;56.068;2023-01-26T08:09:07;17.35;;;9.45;;
29634;SDS011;16557;54.762;56.068;2023-01-26T08:11:37;17.95;;;9.63;;
29634;SDS011;16557;54.762;56.068;2023-01-26T08:14:06;19.07;;;9.83;;
29634;SDS011;16557;54.762;56.068;2023-01-26T08:16:35;18.55;;;9.20;;
29634;SDS011;16557;54.762;56.068;2023-01-26T08:19:04;14.38;;;8.48;;
29634;SDS011;16557;54.762;56.068;2023-01-26T08:21:34;17.17;;;9.58;;
29634;SDS011;16557;54.762;56.068;2023-01-26T08:24:03;17.30;;;9.50;;
29634;SDS011;16557;54.762;56.068;2023-01-26T08:26:32;15.23;;;8.65;;
29634;SDS011;16557;54.762;56.068;2023-01-26T08:29:01;19.02;;;9.00;;
29634;SDS011;16557;54.762;56.068;2023-01-26T08:31:31;17.25;;;9.83;;
29634;SDS011;16557;54.762;56.068;2023-01-26T08:34:00;12.78;;;7.87;;
29634;SDS011;16557;54.762;56.068;2023-01-26T08:36:30;15.23;;;8.38;;
29634;SDS011;16557;54.762;56.068;2023-01-26T08:38:59;13.90;;;8.35;;
29634;SDS011;16557;54.762;56.068;2023-01-26T08:41:29;13.38;;;7.97;;
29634;SDS011;16557;54.762;56.068;2023-01-26T08:43:59;15.83;;;8.60;;
29634;SDS011;16557;54.762;56.068;2023-01-26T08:46:28;14.45;;;8.08;;
29634;SDS011;16557;54.762;56.068;2023-01-26T08:48:57;13.90;;;8.45;;
29634;SDS011;16557;54.762;56.068;2023-01-26T08:51:26;18.05;;;9.95;;
29634;SDS011;16557;54.762;56.068;2023-01-26T08:53:56;15.40;;;7.80;;
29634;SDS011;16557;54.762;56.068;2023-01-26T08:56:25;16.12;;;9.80;;
29634;SDS011;16557;54.762;56.068;2023-01-26T08:58:54;15.58;;;8.83;;
29634;SDS011;16557;54.762;56.068;2023-01-26T09:01:23;11.83;;;6.92;;
29634;SDS011;16557;54.762;56.068;2023-01-26T09:03:52;15.32;;;7.70;;
29634;SDS011;16557;54.762;56.068;2023-01-26T09:06:22;12.82;;;7.40;;
29634;SDS011;16557;54.762;56.068;2023-01-26T09:08:53;13.65;;;7.72;;
29634;SDS011;16557;54.762;56.068;2023-01-26T09:11:22;15.03;;;8.65;;
29634;SDS011;16557;54.762;56.068;2023-01-26T09:13:51;12.35;;;7.60;;
29634;SDS011;16557;54.762;56.068;2023-01-26T09:16:23;12.98;;;7.15;;
29634;SDS011;16557;54.762;56.068;2023-01-26T09:18:52;14.73;;;8.08;;
29634;SDS011;16557;54.762;56.068;2023-01-26T09:21:21;15.78;;;7.90;;
29634;SDS011;16557;54.762;56.068;2023-01-26T09:23:51;13.30;;;7.67;;
29634;SDS011;16557;54.762;56.068;2023-01-26T09:26:20;13.88;;;7.75;;
29634;SDS011;16557;54.762;56.068;2023-01-26T09:28:50;13.20;;;8.08;;
29634;SDS011;16557;54.762;56.068;2023-01-26T09:31:19;12.73;;;7.03;;
29634;SDS011;16557;54.762;56.068;2023-01-26T09:33:49;13.48;;;7.67;;
29634;SDS011;16557;54.762;56.068;2023-01-26T09:36:18;13.85;;;7.42;;
29634;SDS011;16557;54.762;56.068;2023-01-26T09:38:47;10.72;;;6.87;;
29634;SDS011;16557;54.762;56.068;2023-01-26T09:41:20;11.75;;;7.72;;
29634;SDS011;16557;54.762;56.068;2023-01-26T09:44:08;13.62;;;7.15;;
29634;SDS011;16557;54.762;56.068;2023-01-26T09:52:37;13.50;;;6.97;;
29634;SDS011;16557;54.762;56.068;2023-01-26T09:57:58;14.20;;;7.35;;
29634;SDS011;16557;54.762;56.068;2023-01-26T10:00:35;13.58;;;6.50;;
29634;SDS011;16557;54.762;56.068;2023-01-26T10:08:21;16.17;;;6.92;;
29634;SDS011;16557;54.762;56.068;2023-01-26T10:10:56;14.05;;;6.70;;
29634;SDS011;16557;54.762;56.068;2023-01-26T10:13:28;12.35;;;6.80;;
29634;SDS011;16557;54.762;56.068;2023-01-26T10:16:06;14.25;;;6.90;;
29634;SDS011;16557;54.762;56.068;2023-01-26T10:18:49;13.83;;;6.70;;
29634;SDS011;16557;54.762;56.068;2023-01-26T10:21:14;11.95;;;6.45;;
29634;SDS011;16557;54.762;56.068;2023-01-26T10:23:46;11.88;;;7.28;;
29634;SDS011;16557;54.762;56.068;2023-01-26T10:26:22;13.75;;;6.72;;
29634;SDS011;16557;54.762;56.068;2023-01-26T10:28:53;15.35;;;7.08;;
29634;SDS011;16557;54.762;56.068;2023-01-26T10:31:22;12.75;;;6.92;;
29634;SDS011;16557;54.762;56.068;2023-01-26T10:36:31;16.82;;;7.80;;
29634;SDS011;16557;54.762;56.068;2023-01-26T10:39:10;11.88;;;6.65;;
29634;SDS011;16557;54.762;56.068;2023-01-26T10:41:35;12.65;;;6.42;;
29634;SDS011;16557;54.762;56.068;2023-01-26T10:46:44;12.47;;;6.45;;
29634;SDS011;16557;54.762;56.068;2023-01-26T10:49:14;15.48;;;7.47;;
29634;SDS011;16557;54.762;56.068;2023-01-26T10:51:45;16.42;;;8.23;;
29634;SDS011;16557;54.762;56.068;2023-01-26T10:56:54;13.88;;;7.05;;
29634;SDS011;16557;54.762;56.068;2023-01-26T10:59:34;18.17;;;7.45;;
29634;SDS011;16557;54.762;56.068;2023-01-26T11:05:12;14.33;;;6.87;;
29634;SDS011;16557;54.762;56.068;2023-01-26T11:07:38;14.98;;;7.65;;
29634;SDS011;16557;54.762;56.068;2023-01-26T11:10:15;15.20;;;7.53;;
29634;SDS011;16557;54.762;56.068;2023-01-26T11:15:47;15.68;;;7.87;;
29634;SDS011;16557;54.762;56.068;2023-01-26T11:18:21;13.58;;;6.12;;
29634;SDS011;16557;54.762;56.068;2023-01-26T11:23:53;16.02;;;6.78;;
29634;SDS011;16557;54.762;56.068;2023-01-26T11:26:31;15.60;;;6.95;;
29634;SDS011;16557;54.762;56.068;2023-01-26T11:29:32;13.93;;;7.50;;
29634;SDS011;16557;54.762;56.068;2023-01-26T11:32:12;15.93;;;7.95;;
29634;SDS011;16557;54.762;56.068;2023-01-26T11:35:03;12.80;;;6.15;;
29634;SDS011;16557;54.762;56.068;2023-01-26T11:37:37;15.90;;;7.42;;
29634;SDS011;16557;54.762;56.068;2023-01-26T11:45:40;14.80;;;7.47;;
29634;SDS011;16557;54.762;56.068;2023-01-26T11:48:38;12.50;;;6.67;;
29634;SDS011;16557;54.762;56.068;2023-01-26T11:51:31;14.18;;;6.53;;
29634;SDS011;16557;54.762;56.068;2023-01-26T12:05:16;14.68;;;6.12;;
29634;SDS011;16557;54.762;56.068;2023-01-26T12:07:53;12.80;;;7.05;;
29634;SDS011;16557;54.762;56.068;2023-01-26T12:10:56;10.03;;;6.25;;
29634;SDS011;16557;54.762;56.068;2023-01-26T12:13:37;14.07;;;6.60;;
29634;SDS011;16557;54.762;56.068;2023-01-26T12:16:18;14.43;;;6.70;;
29634;SDS011;16557;54.762;56.068;2023-01-26T12:21:42;12.82;;;6.12;;
29634;SDS011;16557;54.762;56.068;2023-01-26T12:24:20;11.78;;;6.47;;
29634;SDS011;16557;54.762;56.068;2023-01-26T12:26:53;12.45;;;5.95;;
29634;SDS011;16557;54.762;56.068;2023-01-26T12:29:35;15.50;;;7.90;;
29634;SDS011;16557;54.762;56.068;2023-01-26T12:32:04;14.83;;;6.25;;
29634;SDS011;16557;54.762;56.068;2023-01-26T12:34:40;14.40;;;6.37;;
29634;SDS011;16557;54.762;56.068;2023-01-26T12:40:08;14.93;;;6.55;;
29634;SDS011;16557;54.762;56.068;2023-01-26T12:45:19;14.23;;;6.55;;
29634;SDS011;16557;54.762;56.068;2023-01-26T12:50:41;17.48;;;6.95;;
29634;SDS011;16557;54.762;56.068;2023-01-26T12:53:22;14.93;;;6.58;;
29634;SDS011;16557;54.762;56.068;2023-01-26T12:56:12;18.98;;;6.65;;
29634;SDS011;16557;54.762;56.068;2023-01-26T12:58:58;12.85;;;6.60;;
29634;SDS011;16557;54.762;56.068;2023-01-26T13:01:35;12.10;;;5.85;;
29634;SDS011;16557;54.762;56.068;2023-01-26T13:04:14;13.43;;;7.10;;
29634;SDS011;16557;54.762;56.068;2023-01-26T13:06:39;14.70;;;6.90;;
29634;SDS011;16557;54.762;56.068;2023-01-26T13:11:52;13.50;;;6.67;;
29634;SDS011;16557;54.762;56.068;2023-01-26T13:14:28;11.48;;;6.17;;
29634;SDS011;16557;54.762;56.068;2023-01-26T13:24:56;27.07;;;14.63;;
29634;SDS011;16557;54.762;56.068;2023-01-26T13:35:30;13.75;;;6.17;;
29634;SDS011;16557;54.762;56.068;2023-01-26T13:38:01;12.65;;;6.72;;
29634;SDS011;16557;54.762;56.068;2023-01-26T13:40:47;13.15;;;6.65;;
29634;SDS011;16557;54.762;56.068;2023-01-26T13:46:13;14.38;;;6.17;;
29634;SDS011;16557;54.762;56.068;2023-01-26T13:48:59;14.23;;;6.08;;
29634;SDS011;16557;54.762;56.068;2023-01-26T13:51:33;13.25;;;6.40;;
29634;SDS011;16557;54.762;56.068;2023-01-26T13:54:12;12.75;;;6.45;;
29634;SDS011;16557;54.762;56.068;2023-01-26T13:59:28;11.50;;;5.72;;
29634;SDS011;16557;54.762;56.068;2023-01-26T14:01:59;13.75;;;6.53;;
29634;SDS011;16557;54.762;56.068;2023-01-26T14:04:33;16.60;;;8.43;;
29634;SDS011;16557;54.762;56.068;2023-01-26T14:07:07;21.45;;;9.00;;
29634;SDS011;16557;54.762;56.068;2023-01-26T14:09:51;18.12;;;9.28;;
29634;SDS011;16557;54.762;56.068;2023-01-26T14:12:26;12.78;;;6.47;;
29634;SDS011;16557;54.762;56.068;2023-01-26T14:14:52;11.60;;;6.12;;
29634;SDS011;16557;54.762;56.068;2023-01-26T14:17:30;11.53;;;6.47;;
29634;SDS011;16557;54.762;56.068;2023-01-26T14:20:17;11.20;;;6.22;;
29634;SDS011;16557;54.762;56.068;2023-01-26T14:23:00;11.10;;;6.12;;
29634;SDS011;16557;54.762;56.068;2023-01-26T14:25:36;12.70;;;6.80;;
29634;SDS011;16557;54.762;56.068;2023-01-26T14:28:09;11.70;;;5.72;;
29634;SDS011;16557;54.762;56.068;2023-01-26T14:30:43;14.00;;;6.97;;
29634;SDS011;16557;54.762;56.068;2023-01-26T14:33:14;12.13;;;6.35;;
29634;SDS011;16557;54.762;56.068;2023-01-26T14:35:54;13.28;;;6.83;;
29634;SDS011;16557;54.762;56.068;2023-01-26T14:38:26;15.03;;;6.95;;
29634;SDS011;16557;54.762;56.068;2023-01-26T14:40:57;13.20;;;5.87;;
29634;SDS011;16557;54.762;56.068;2023-01-26T14:43:27;13.60;;;6.65;;
29634;SDS011;16557;54.762;56.068;2023-01-26T14:46:03;15.68;;;6.45;;
29634;SDS011;16557;54.762;56.068;2023-01-26T14:48:32;11.28;;;5.50;;
29634;SDS011;16557;54.762;56.068;2023-01-26T14:51:06;16.00;;;6.58;;
29634;SDS011;16557;54.762;56.068;2023-01-26T14:53:38;14.25;;;6.58;;
29634;SDS011;16557;54.762;56.068;2023-01-26T14:56:14;13.32;;;6.22;;
29634;SDS011;16557;54.762;56.068;2023-01-26T14:58:42;12.88;;;5.75;;
29634;SDS011;16557;54.762;56.068;2023-01-26T15:01:12;14.38;;;6.37;;
29634;SDS011;16557;54.762;56.068;2023-01-26T15:03:44;13.45;;;6.47;;
29634;SDS011;16557;54.762;56.068;2023-01-26T15:06:16;15.50;;;7.35;;
29634;SDS011;16557;54.762;56.068;2023-01-26T15:09:13;13.22;;;6.87;;
29634;SDS011;16557;54.762;56.068;2023-01-26T15:11:52;12.33;;;6.08;;
29634;SDS011;16557;54.762;56.068;2023-01-26T15:17:26;22.30;;;10.53;;
29634;SDS011;16557;54.762;56.068;2023-01-26T15:22:52;15.68;;;7.25;;
29634;SDS011;16557;54.762;56.068;2023-01-26T15:25:22;15.13;;;7.05;;
29634;SDS011;16557;54.762;56.068;2023-01-26T15:27:58;14.83;;;5.72;;
29634;SDS011;16557;54.762;56.068;2023-01-26T15:30:29;11.95;;;6.20;;
29634;SDS011;16557;54.762;56.068;2023-01-26T15:32:59;14.35;;;7.17;;
29634;SDS011;16557;54.762;56.068;2023-01-26T15:35:32;13.22;;;6.50;;
29634;SDS011;16557;54.762;56.068;2023-01-26T15:38:03;14.05;;;7.17;;
29634;SDS011;16557;54.762;56.068;2023-01-26T15:40:34;14.80;;;6.85;;
29634;SDS011;16557;54.762;56.068;2023-01-26T15:43:10;12.15;;;5.80;;
29634;SDS011;16557;54.762;56.068;2023-01-26T15:45:41;12.68;;;6.20;;
29634;SDS011;16557;54.762;56.068;2023-01-26T15:48:15;16.70;;;6.33;;
29634;SDS011;16557;54.762;56.068;2023-01-26T15:50:45;12.95;;;6.05;;
29634;SDS011;16557;54.762;56.068;2023-01-26T15:53:15;12.25;;;6.60;;
29634;SDS011;16557;54.762;56.068;2023-01-26T15:55:49;12.68;;;6.83;;
29634;SDS011;16557;54.762;56.068;2023-01-26T15:58:23;12.90;;;6.20;;
29634;SDS011;16557;54.762;56.068;2023-01-26T16:00:54;14.80;;;6.72;;
29634;SDS011;16557;54.762;56.068;2023-01-26T16:03:23;14.03;;;6.70;;
29634;SDS011;16557;54.762;56.068;2023-01-26T16:05:52;18.20;;;6.67;;
29634;SDS011;16557;54.762;56.068;2023-01-26T16:08:22;11.38;;;6.22;;
29634;SDS011;16557;54.762;56.068;2023-01-26T16:10:51;12.13;;;5.90;;
29634;SDS011;16557;54.762;56.068;2023-01-26T16:13:23;10.08;;;5.67;;
29634;SDS011;16557;54.762;56.068;2023-01-26T16:15:52;14.93;;;6.70;;
29634;SDS011;16557;54.762;56.068;2023-01-26T16:18:22;15.98;;;7.80;;
29634;SDS011;16557;54.762;56.068;2023-01-26T16:20:51;14.70;;;6.95;;
29634;SDS011;16557;54.762;56.068;2023-01-26T16:23:22;25.48;;;12.47;;
29634;SDS011;16557;54.762;56.068;2023-01-26T16:25:53;13.43;;;6.72;;
29634;SDS011;16557;54.762;56.068;2023-01-26T16:28:23;10.55;;;5.17;;